createdAt,value
2023-01-29T00:00:00.394Z,80.5
2023-01-29T00:01:00.498Z,80.3
2023-01-29T00:02:00.638Z,80.1
2023-01-29T00:03:00.765Z,80
2023-01-29T00:04:00.836Z,80.1
2023-01-29T00:05:13.006Z,79.9
2023-01-29T00:06:01.025Z,80
2023-01-29T00:07:01.125Z,80.5
2023-01-29T00:08:00.234Z,80.8
2023-01-29T00:09:00.349Z,80.4
2023-01-29T00:10:00.459Z,80.3
2023-01-29T00:11:00.577Z,80.1
2023-01-29T00:12:00.665Z,79.4
2023-01-29T00:13:00.787Z,79.4
2023-01-29T00:14:00.887Z,79.4
2023-01-29T00:15:00.985Z,79.5
2023-01-29T00:16:01.105Z,79.1
2023-01-29T00:17:01.237Z,79.2
2023-01-29T00:18:00.304Z,79.2
2023-01-29T00:19:00.409Z,78.8
2023-01-29T00:20:00.498Z,78.4
2023-01-29T00:21:00.655Z,78.3
2023-01-29T00:22:00.718Z,78.3
2023-01-29T00:23:00.818Z,78.3
2023-01-29T00:24:00.981Z,77.9
2023-01-29T00:25:01.054Z,77.5
2023-01-29T00:26:01.131Z,78
2023-01-29T00:27:00.252Z,78.3
2023-01-29T00:28:00.350Z,78.5
2023-01-29T00:29:00.462Z,78.8
2023-01-29T00:30:00.587Z,78.9
2023-01-29T00:31:00.825Z,79
2023-01-29T00:32:00.912Z,79
2023-01-29T00:33:00.869Z,78.9
2023-01-29T00:34:00.985Z,78.5
2023-01-29T00:35:01.110Z,78.1
2023-01-29T00:36:01.201Z,78.5
2023-01-29T00:37:00.303Z,78.8
2023-01-29T00:38:00.408Z,78.6
2023-01-29T00:39:00.618Z,78.6
2023-01-29T00:40:00.638Z,77.6
2023-01-29T00:41:00.726Z,77.6
2023-01-29T00:42:00.834Z,77.6
2023-01-29T00:43:00.951Z,77.5
2023-01-29T00:44:01.050Z,76.9
2023-01-29T00:45:01.177Z,76.3
2023-01-29T00:46:00.271Z,76.5
2023-01-29T00:47:00.395Z,76.7
2023-01-29T00:48:00.477Z,76.4
2023-01-29T00:49:00.959Z,77.1
2023-01-29T00:50:00.707Z,77.4
2023-01-29T00:51:00.793Z,77.9
2023-01-29T00:52:00.908Z,77.8
2023-01-29T00:53:01.001Z,77
2023-01-29T00:54:01.109Z,76.9
2023-01-29T00:55:01.242Z,77
2023-01-29T00:56:00.311Z,77.7
2023-01-29T00:57:00.420Z,78.2
2023-01-29T00:58:00.509Z,78.4
2023-01-29T00:59:00.621Z,77.4
2023-01-29T01:00:00.740Z,77.5
2023-01-29T01:01:00.879Z,77.5
2023-01-29T01:02:01.028Z,77.4
2023-01-29T01:03:01.038Z,77.4
2023-01-29T01:04:01.141Z,77.3
2023-01-29T01:05:00.259Z,77.3
2023-01-29T01:06:00.362Z,78.2
2023-01-29T01:07:00.477Z,77.8
2023-01-29T01:08:00.630Z,77.9
2023-01-29T01:09:00.666Z,77.6
2023-01-29T01:10:00.793Z,77.8
2023-01-29T01:11:00.886Z,77.1
2023-01-29T01:12:00.996Z,76.9
2023-01-29T01:13:01.136Z,76.8
2023-01-29T01:14:01.200Z,76.8
2023-01-29T01:15:00.307Z,76.6
2023-01-29T01:16:00.479Z,76.5
2023-01-29T01:17:00.515Z,76.5
2023-01-29T01:18:00.636Z,76.8
2023-01-29T01:19:00.745Z,76.9
2023-01-29T01:20:00.837Z,76.8
2023-01-29T01:21:00.937Z,76.9
2023-01-29T01:22:01.032Z,76.9
2023-01-29T01:23:01.148Z,77.4
2023-01-29T01:24:00.305Z,77.5
2023-01-29T01:25:00.379Z,77.6
2023-01-29T01:26:00.459Z,78
2023-01-29T01:27:00.566Z,78
2023-01-29T01:28:00.725Z,77.9
2023-01-29T01:29:00.765Z,77.9
2023-01-29T01:30:00.892Z,78
2023-01-29T01:31:01.019Z,78.1
2023-01-29T01:32:01.147Z,78.1
2023-01-29T01:33:01.217Z,77.9
2023-01-29T01:34:00.316Z,78
2023-01-29T01:35:00.403Z,77.9
2023-01-29T01:36:00.515Z,78.5
2023-01-29T01:37:00.607Z,78.4
2023-01-29T01:38:00.714Z,78.6
2023-01-29T01:39:00.812Z,78.3
2023-01-29T01:40:00.908Z,78.6
2023-01-29T01:41:01.019Z,78.1
2023-01-29T01:42:01.125Z,78.1
2023-01-29T01:43:00.249Z,78
2023-01-29T01:44:00.333Z,78
2023-01-29T01:45:00.467Z,78.4
2023-01-29T01:46:00.622Z,78.5
2023-01-29T01:47:00.640Z,78.6
2023-01-29T01:48:00.773Z,78.7
2023-01-29T01:49:00.864Z,78.7
2023-01-29T01:50:00.944Z,79
2023-01-29T01:51:01.052Z,79.3
2023-01-29T01:52:01.157Z,79.1
2023-01-29T01:53:00.259Z,79.1
2023-01-29T01:54:00.374Z,79.4
2023-01-29T01:55:00.490Z,79.4
2023-01-29T01:56:00.563Z,79.2
2023-01-29T01:57:00.680Z,79.3
2023-01-29T01:58:00.803Z,79.3
2023-01-29T01:59:00.879Z,79
2023-01-29T02:00:01.002Z,78.9
2023-01-29T02:01:01.141Z,79
2023-01-29T02:02:01.307Z,79.4
2023-01-29T02:03:00.318Z,79.2
2023-01-29T02:04:00.414Z,79.2
2023-01-29T02:05:00.519Z,79.1
2023-01-29T02:06:00.631Z,79.2
2023-01-29T02:07:00.772Z,79.4
2023-01-29T02:08:00.844Z,79.4
2023-01-29T02:09:00.951Z,79.4
2023-01-29T02:10:01.045Z,79.4
2023-01-29T02:11:01.150Z,79.5
2023-01-29T02:12:00.255Z,79.7
2023-01-29T02:13:00.383Z,79.5
2023-01-29T02:14:00.470Z,79.8
2023-01-29T02:15:00.566Z,79.4
2023-01-29T02:16:00.732Z,79.5
2023-01-29T02:17:00.790Z,80.1
2023-01-29T02:18:00.917Z,80.3
2023-01-29T02:19:01.003Z,80.2
2023-01-29T02:20:01.116Z,80.1
2023-01-29T02:21:01.209Z,80.3
2023-01-29T02:22:00.315Z,80.3
2023-01-29T02:23:02.558Z,80.3
2023-01-29T02:24:00.698Z,80.3
2023-01-29T02:25:00.620Z,80.4
2023-01-29T02:26:00.756Z,80.5
2023-01-29T02:27:00.819Z,80.2
2023-01-29T02:28:00.937Z,80.1
2023-01-29T02:29:01.060Z,79.9
2023-01-29T02:30:01.166Z,80
2023-01-29T02:31:00.418Z,80
2023-01-29T02:32:00.453Z,79.8
2023-01-29T02:33:00.456Z,79.7
2023-01-29T02:34:00.572Z,79.7
2023-01-29T02:35:00.686Z,79.8
2023-01-29T02:36:00.769Z,80
2023-01-29T02:37:00.880Z,79.7
2023-01-29T02:38:00.984Z,79.8
2023-01-29T02:39:01.084Z,79.6
2023-01-29T02:40:01.227Z,79.7
2023-01-29T02:41:00.297Z,79.8
2023-01-29T02:42:00.409Z,79.9
2023-01-29T02:43:00.511Z,79.9
2023-01-29T02:44:00.618Z,79.9
2023-01-29T02:45:00.753Z,79.9
2023-01-29T02:46:00.968Z,80
2023-01-29T02:47:00.939Z,80
2023-01-29T02:48:01.029Z,79.9
2023-01-29T02:49:01.136Z,80
2023-01-29T02:50:00.266Z,80.1
2023-01-29T02:51:00.371Z,80.1
2023-01-29T02:52:00.468Z,80.3
2023-01-29T02:53:00.570Z,80.3
2023-01-29T02:54:00.673Z,80.3
2023-01-29T02:55:00.805Z,80.2
2023-01-29T02:56:00.892Z,80.3
2023-01-29T02:57:01.002Z,80.5
2023-01-29T02:58:01.114Z,80.6
2023-01-29T02:59:01.205Z,80.8
2023-01-29T03:00:00.338Z,80.9
2023-01-29T03:01:00.493Z,80.7
2023-01-29T03:02:00.554Z,80.9
2023-01-29T03:03:00.630Z,81
2023-01-29T03:04:00.744Z,81.1
2023-01-29T03:05:00.855Z,81.2
2023-01-29T03:06:00.968Z,81.2
2023-01-29T03:07:01.067Z,81.2
2023-01-29T03:08:01.167Z,81.2
2023-01-29T03:09:00.305Z,81.2
2023-01-29T03:10:00.379Z,81.4
2023-01-29T03:11:00.486Z,81.4
2023-01-29T03:12:00.652Z,81.2
2023-01-29T03:13:00.685Z,81.1
2023-01-29T03:14:00.809Z,81.2
2023-01-29T03:15:00.900Z,81.3
2023-01-29T03:16:01.000Z,81.2
2023-01-29T03:17:01.109Z,81.5
2023-01-29T03:18:01.205Z,81.4
2023-01-29T03:19:00.343Z,81.4
2023-01-29T03:20:00.423Z,81.5
2023-01-29T03:21:00.520Z,81.5
2023-01-29T03:22:00.636Z,81.7
2023-01-29T03:23:00.721Z,81.9
2023-01-29T03:24:00.848Z,82.1
2023-01-29T03:25:00.981Z,82.2
2023-01-29T03:26:01.058Z,82.1
2023-01-29T03:27:01.146Z,82.1
2023-01-29T03:28:00.278Z,82
2023-01-29T03:29:00.353Z,81.9
2023-01-29T03:30:00.458Z,82
2023-01-29T03:31:00.697Z,82
2023-01-29T03:32:00.682Z,81.9
2023-01-29T03:33:00.769Z,81.9
2023-01-29T03:34:00.917Z,81.8
2023-01-29T03:35:00.979Z,81.9
2023-01-29T03:36:01.111Z,82
2023-01-29T03:37:01.183Z,82.1
2023-01-29T03:38:00.290Z,81.9
2023-01-29T03:39:00.416Z,82.1
2023-01-29T03:40:00.499Z,82.1
2023-01-29T03:41:00.618Z,82.3
2023-01-29T03:42:00.751Z,82.5
2023-01-29T03:43:00.828Z,82.8
2023-01-29T03:44:00.925Z,82.9
2023-01-29T03:45:01.037Z,82.8
2023-01-29T03:46:01.215Z,82.6
2023-01-29T03:47:00.270Z,82.7
2023-01-29T03:48:00.371Z,82.8
2023-01-29T03:49:00.467Z,82.9
2023-01-29T03:50:00.641Z,83.1
2023-01-29T03:51:00.672Z,83.1
2023-01-29T03:52:00.788Z,83.1
2023-01-29T03:53:00.878Z,83
2023-01-29T03:54:00.974Z,83.1
2023-01-29T03:55:01.102Z,83.2
2023-01-29T03:56:01.201Z,83.2
2023-01-29T03:57:00.312Z,83.1
2023-01-29T03:58:00.420Z,83.1
2023-01-29T03:59:00.507Z,83.2
2023-01-29T04:00:00.614Z,83.1
2023-01-29T04:01:00.718Z,83.1
2023-01-29T04:02:00.843Z,83.1
2023-01-29T04:03:00.936Z,83.1
2023-01-29T04:04:01.102Z,83
2023-01-29T04:05:01.144Z,83
2023-01-29T04:06:00.239Z,82.9
2023-01-29T04:07:00.346Z,82.7
2023-01-29T04:08:00.475Z,82.6
2023-01-29T04:09:00.566Z,82.6
2023-01-29T04:10:00.701Z,82.5
2023-01-29T04:11:00.777Z,82.5
2023-01-29T04:12:00.877Z,82.6
2023-01-29T04:13:01.008Z,82.7
2023-01-29T04:14:01.109Z,82.8
2023-01-29T04:15:01.199Z,82.7
2023-01-29T04:16:00.315Z,82.7
2023-01-29T04:17:00.410Z,82.5
2023-01-29T04:18:00.517Z,82.6
2023-01-29T04:19:00.641Z,82.5
2023-01-29T04:20:00.729Z,82.6
2023-01-29T04:21:00.837Z,82.8
2023-01-29T04:22:00.943Z,82.9
2023-01-29T04:23:01.045Z,82.9
2023-01-29T04:24:01.221Z,82.9
2023-01-29T04:25:00.266Z,82.9
2023-01-29T04:26:00.379Z,82.8
2023-01-29T04:27:00.482Z,82.9
2023-01-29T04:28:00.590Z,82.8
2023-01-29T04:29:00.700Z,82.6
2023-01-29T04:30:00.799Z,82.7
2023-01-29T04:31:01.149Z,82.7
2023-01-29T04:32:01.017Z,82.8
2023-01-29T04:33:01.118Z,82.8
2023-01-29T04:34:00.252Z,82.8
2023-01-29T04:35:00.342Z,82.7
2023-01-29T04:36:00.465Z,82.7
2023-01-29T04:37:00.635Z,82.5
2023-01-29T04:38:00.675Z,82.5
2023-01-29T04:39:00.806Z,82.5
2023-01-29T04:40:00.893Z,82.5
2023-01-29T04:41:00.988Z,82.5
2023-01-29T04:42:01.113Z,82.6
2023-01-29T04:43:01.217Z,82.6
2023-01-29T04:44:00.326Z,82.6
2023-01-29T04:45:00.421Z,82.6
2023-01-29T04:46:00.514Z,82.7
2023-01-29T04:47:00.617Z,82.7
2023-01-29T04:48:00.736Z,82.6
2023-01-29T04:49:00.862Z,82.6
2023-01-29T04:50:00.973Z,82.6
2023-01-29T04:51:01.045Z,82.5
2023-01-29T04:52:01.156Z,82.5
2023-01-29T04:53:00.265Z,82.6
2023-01-29T04:54:00.372Z,82.6
2023-01-29T04:55:00.487Z,82.6
2023-01-29T04:56:00.578Z,82.7
2023-01-29T04:57:00.677Z,82.8
2023-01-29T04:58:00.783Z,82.7
2023-01-29T04:59:00.890Z,82.6
2023-01-29T05:00:01.014Z,82.7
2023-01-29T05:01:01.093Z,82.8
2023-01-29T05:02:01.228Z,82.8
2023-01-29T05:03:00.336Z,82.8
2023-01-29T05:04:00.412Z,82.9
2023-01-29T05:05:00.571Z,82.9
2023-01-29T05:06:00.649Z,83
2023-01-29T05:07:00.726Z,83
2023-01-29T05:08:00.834Z,83
2023-01-29T05:09:00.939Z,82.9
2023-01-29T05:10:01.067Z,82.9
2023-01-29T05:11:01.204Z,82.9
2023-01-29T05:12:00.259Z,82.9
2023-01-29T05:13:00.356Z,83
2023-01-29T05:14:00.475Z,83
2023-01-29T05:15:00.566Z,83
2023-01-29T05:16:00.727Z,83.1
2023-01-29T05:17:00.778Z,83.1
2023-01-29T05:18:00.870Z,83.2
2023-01-29T05:19:00.972Z,83.1
2023-01-29T05:20:01.069Z,83.2
2023-01-29T05:21:01.205Z,83.3
2023-01-29T05:22:00.289Z,83.4
2023-01-29T05:23:00.397Z,83.4
2023-01-29T05:24:00.594Z,83.4
2023-01-29T05:25:00.614Z,83.4
2023-01-29T05:26:00.718Z,83.4
2023-01-29T05:27:00.821Z,83.5
2023-01-29T05:28:00.903Z,83.5
2023-01-29T05:29:01.006Z,83.5
2023-01-29T05:30:01.127Z,83.4
2023-01-29T05:31:01.431Z,83.4
2023-01-29T05:32:00.380Z,83.4
2023-01-29T05:33:00.446Z,83.5
2023-01-29T05:34:00.555Z,83.6
2023-01-29T05:35:00.679Z,83.6
2023-01-29T05:36:00.781Z,83.6
2023-01-29T05:37:00.916Z,83.6
2023-01-29T05:38:01.009Z,83.7
2023-01-29T05:39:01.093Z,83.7
2023-01-29T05:40:01.191Z,83.6
2023-01-29T05:41:00.307Z,83.6
2023-01-29T05:42:00.395Z,83.7
2023-01-29T05:43:00.521Z,83.8
2023-01-29T05:44:00.611Z,83.8
2023-01-29T05:45:00.758Z,83.9
2023-01-29T05:46:00.827Z,83.9
2023-01-29T05:47:00.927Z,83.8
2023-01-29T05:48:01.058Z,83.9
2023-01-29T05:49:01.162Z,84
2023-01-29T05:50:00.255Z,84
2023-01-29T05:51:00.353Z,83.9
2023-01-29T05:52:00.464Z,84
2023-01-29T05:53:00.567Z,84
2023-01-29T05:54:00.674Z,83.9
2023-01-29T05:55:00.778Z,84
2023-01-29T05:56:00.901Z,84
2023-01-29T05:57:00.975Z,84.1
2023-01-29T05:58:01.079Z,84.1
2023-01-29T05:59:01.198Z,84
2023-01-29T06:00:00.289Z,84
2023-01-29T06:01:00.410Z,84
2023-01-29T06:02:00.615Z,84
2023-01-29T06:03:00.636Z,83.9
2023-01-29T06:04:00.735Z,83.9
2023-01-29T06:05:00.837Z,84
2023-01-29T06:06:00.935Z,84
2023-01-29T06:07:01.034Z,84.1
2023-01-29T06:08:01.152Z,84.1
2023-01-29T06:09:00.244Z,84.2
2023-01-29T06:10:00.381Z,84.2
2023-01-29T06:11:00.459Z,84.3
2023-01-29T06:12:00.658Z,84.3
2023-01-29T06:13:00.688Z,84.3
2023-01-29T06:14:00.794Z,84.2
2023-01-29T06:15:00.913Z,84.2
2023-01-29T06:16:01.116Z,84.3
2023-01-29T06:17:01.114Z,84.4
2023-01-29T06:18:01.220Z,84.4
2023-01-29T06:19:00.317Z,84.5
2023-01-29T06:20:00.444Z,84.5
2023-01-29T06:21:00.535Z,84.5
2023-01-29T06:22:00.642Z,84.4
2023-01-29T06:23:00.754Z,84.5
2023-01-29T06:24:00.925Z,84.6
2023-01-29T06:25:01.013Z,84.6
2023-01-29T06:26:01.069Z,84.5
2023-01-29T06:27:01.170Z,84.5
2023-01-29T06:28:00.289Z,84.6
2023-01-29T06:29:00.383Z,84.6
2023-01-29T06:30:00.511Z,84.7
2023-01-29T06:31:11.394Z,84.7
2023-01-29T06:32:00.852Z,84.6
2023-01-29T06:33:00.830Z,84.6
2023-01-29T06:34:00.926Z,84.7
2023-01-29T06:35:01.048Z,84.7
2023-01-29T06:36:01.143Z,84.7
2023-01-29T06:37:00.241Z,84.7
2023-01-29T06:38:00.379Z,84.7
2023-01-29T06:39:00.466Z,84.6
2023-01-29T06:40:00.569Z,84.5
2023-01-29T06:41:00.674Z,84.5
2023-01-29T06:42:00.758Z,84.4
2023-01-29T06:43:00.862Z,84.4
2023-01-29T06:44:00.970Z,84.4
2023-01-29T06:45:01.092Z,84.3
2023-01-29T06:46:01.302Z,84.3
2023-01-29T06:47:00.314Z,84.3
2023-01-29T06:48:01.571Z,84.3
2023-01-29T06:49:00.532Z,84.3
2023-01-29T06:50:00.621Z,84.2
2023-01-29T06:51:00.734Z,84.2
2023-01-29T06:52:00.846Z,84.1
2023-01-29T06:53:00.937Z,84
2023-01-29T06:54:01.047Z,84
2023-01-29T06:55:01.154Z,84
2023-01-29T06:56:00.258Z,84
2023-01-29T06:57:00.384Z,83.9
2023-01-29T06:58:00.464Z,83.9
2023-01-29T06:59:00.557Z,83.9
2023-01-29T07:00:00.675Z,83.7
2023-01-29T07:01:00.817Z,83.7
2023-01-29T07:02:00.929Z,83.6
2023-01-29T07:03:01.013Z,83.5
2023-01-29T07:04:01.096Z,83.5
2023-01-29T07:05:01.200Z,83.6
2023-01-29T07:06:00.333Z,83.7
2023-01-29T07:07:00.415Z,83.7
2023-01-29T07:08:00.530Z,83.7
2023-01-29T07:09:00.642Z,83.6
2023-01-29T07:10:00.744Z,83.6
2023-01-29T07:11:00.865Z,83.6
2023-01-29T07:12:00.975Z,83.6
2023-01-29T07:13:01.059Z,83.6
2023-01-29T07:14:01.170Z,83.6
2023-01-29T07:15:00.259Z,83.5
2023-01-29T07:16:00.428Z,83.4
2023-01-29T07:17:00.488Z,83.4
2023-01-29T07:18:00.602Z,83.4
2023-01-29T07:19:00.690Z,83.3
2023-01-29T07:20:00.792Z,83.4
2023-01-29T07:21:00.903Z,83.3
2023-01-29T07:22:00.998Z,83.3
2023-01-29T07:23:01.113Z,83.4
2023-01-29T07:24:01.231Z,83.5
2023-01-29T07:25:00.314Z,83.5
2023-01-29T07:26:00.420Z,83.5
2023-01-29T07:27:00.524Z,83.4
2023-01-29T07:28:01.071Z,83.4
2023-01-29T07:29:00.722Z,83.4
2023-01-29T07:30:00.835Z,83.4
2023-01-29T07:31:01.007Z,83.5
2023-01-29T07:32:01.183Z,83.6
2023-01-29T07:33:01.185Z,83.7
2023-01-29T07:34:00.266Z,83.8
2023-01-29T07:35:00.379Z,83.7
2023-01-29T07:36:00.494Z,83.6
2023-01-29T07:37:00.596Z,83.6
2023-01-29T07:38:00.713Z,83.8
2023-01-29T07:39:00.817Z,83.6
2023-01-29T07:40:00.900Z,83.7
2023-01-29T07:41:03.023Z,83.7
2023-01-29T07:42:01.141Z,83.6
2023-01-29T07:43:01.215Z,83.5
2023-01-29T07:44:00.329Z,83.6
2023-01-29T07:45:00.457Z,83.9
2023-01-29T07:46:00.600Z,83.9
2023-01-29T07:47:00.636Z,83.8
2023-01-29T07:48:00.751Z,83.7
2023-01-29T07:49:00.823Z,83.7
2023-01-29T07:50:00.938Z,84
2023-01-29T07:51:01.111Z,83.9
2023-01-29T07:52:01.148Z,83.9
2023-01-29T07:53:00.293Z,83.8
2023-01-29T07:54:00.354Z,83.8
2023-01-29T07:55:00.463Z,83.6
2023-01-29T07:56:00.580Z,83.5
2023-01-29T07:57:00.683Z,83.5
2023-01-29T07:58:00.800Z,83.4
2023-01-29T07:59:00.891Z,83.4
2023-01-29T08:00:00.991Z,83.3
2023-01-29T08:01:01.271Z,83.3
2023-01-29T08:02:01.290Z,83.4
2023-01-29T08:03:00.327Z,83.3
2023-01-29T08:04:00.428Z,83
2023-01-29T08:05:00.522Z,83
2023-01-29T08:06:00.627Z,83.1
2023-01-29T08:07:00.732Z,83.4
2023-01-29T08:08:07.013Z,83.2
2023-01-29T08:09:00.946Z,82.9
2023-01-29T08:10:01.044Z,83
2023-01-29T08:11:01.145Z,83.3
2023-01-29T08:12:00.256Z,83.2
2023-01-29T08:13:00.370Z,83.2
2023-01-29T08:14:00.453Z,82.9
2023-01-29T08:15:00.592Z,82.6
2023-01-29T08:16:00.671Z,82.7
2023-01-29T08:17:00.788Z,82.6
2023-01-29T08:18:00.920Z,82.7
2023-01-29T08:19:00.993Z,82.7
2023-01-29T08:20:01.115Z,82.7
2023-01-29T08:21:01.316Z,82.5
2023-01-29T08:22:00.309Z,82.6
2023-01-29T08:23:00.509Z,82.7
2023-01-29T08:25:08.165Z,82.7
2023-01-29T08:26:00.765Z,82.6
2023-01-29T08:27:00.838Z,82.4
2023-01-29T08:28:00.963Z,82.7
2023-01-29T08:29:01.033Z,82.8
2023-01-29T08:30:01.142Z,82.3
2023-01-29T08:31:00.282Z,82.5
2023-01-29T08:32:00.414Z,82.2
2023-01-29T08:33:00.475Z,82.6
2023-01-29T08:34:00.553Z,82.7
2023-01-29T08:35:00.671Z,82.3
2023-01-29T08:36:00.760Z,82.6
2023-01-29T08:37:00.874Z,82.5
2023-01-29T08:38:00.995Z,82.7
2023-01-29T08:39:01.094Z,82.6
2023-01-29T08:40:01.201Z,82.1
2023-01-29T08:41:00.292Z,82.2
2023-01-29T08:42:00.410Z,82.2
2023-01-29T08:43:02.251Z,82.1
2023-01-29T08:44:00.734Z,81.7
2023-01-29T08:45:00.731Z,82.1
2023-01-29T08:46:00.947Z,82
2023-01-29T08:47:00.930Z,81.8
2023-01-29T08:48:01.060Z,82.2
2023-01-29T08:49:01.152Z,82.2
2023-01-29T08:50:00.254Z,82.1
2023-01-29T08:51:00.355Z,82.1
2023-01-29T08:52:02.983Z,81.6
2023-01-29T08:53:00.565Z,81.7
2023-01-29T08:54:00.665Z,82
2023-01-29T08:55:00.776Z,81.8
2023-01-29T08:56:00.873Z,81.8
2023-01-29T08:57:00.987Z,82.2
2023-01-29T08:58:01.088Z,82.2
2023-01-29T08:59:01.220Z,82
2023-01-29T09:00:00.304Z,81.6
2023-01-29T09:01:00.435Z,81.6
2023-01-29T09:02:00.510Z,81.5
2023-01-29T09:03:00.643Z,81.5
2023-01-29T09:04:00.780Z,81.5
2023-01-29T09:05:00.866Z,81.5
2023-01-29T09:06:00.938Z,81.3
2023-01-29T09:07:01.050Z,81.5
2023-01-29T09:08:01.151Z,81.7
2023-01-29T09:09:00.272Z,81.6
2023-01-29T09:10:00.398Z,81.1
2023-01-29T09:11:00.489Z,81.1
2023-01-29T09:12:00.577Z,81.1
2023-01-29T09:13:00.685Z,81.1
2023-01-29T09:14:00.786Z,81
2023-01-29T09:15:00.911Z,80.9
2023-01-29T09:16:00.996Z,81.3
2023-01-29T09:17:01.115Z,81.4
2023-01-29T09:18:01.231Z,81.1
2023-01-29T09:19:00.327Z,80.8
2023-01-29T09:20:00.445Z,80.3
2023-01-29T09:21:00.529Z,80.4
2023-01-29T09:22:00.672Z,80.8
2023-01-29T09:23:00.744Z,81.1
2023-01-29T09:24:00.864Z,80.8
2023-01-29T09:25:00.985Z,81.2
2023-01-29T09:26:01.062Z,81.1
2023-01-29T09:27:01.161Z,81.1
2023-01-29T09:28:00.271Z,81.1
2023-01-29T09:29:00.373Z,81.2
2023-01-29T09:30:00.493Z,80.6
2023-01-29T09:31:00.698Z,80.6
2023-01-29T09:32:00.718Z,80.9
2023-01-29T09:33:00.799Z,81
2023-01-29T09:34:00.882Z,81.2
2023-01-29T09:35:00.995Z,81
2023-01-29T09:36:01.110Z,81
2023-01-29T09:37:01.212Z,80.4
2023-01-29T09:38:00.322Z,80.5
2023-01-29T09:39:00.424Z,81
2023-01-29T09:40:00.535Z,81.2
2023-01-29T09:41:00.666Z,81
2023-01-29T09:42:00.759Z,81.1
2023-01-29T09:43:00.856Z,81.1
2023-01-29T09:44:00.954Z,80.9
2023-01-29T09:45:01.082Z,81.1
2023-01-29T09:46:01.243Z,80.8
2023-01-29T09:47:00.276Z,81.2
2023-01-29T09:48:00.384Z,81.7
2023-01-29T09:49:00.490Z,81.3
2023-01-29T09:50:00.609Z,81.3
2023-01-29T09:51:00.728Z,81.2
2023-01-29T09:52:00.826Z,80.3
2023-01-29T09:53:00.925Z,80.6
2023-01-29T09:54:01.030Z,80.6
2023-01-29T09:55:01.159Z,80.6
2023-01-29T09:56:00.261Z,80.6
2023-01-29T09:57:00.392Z,80.6
2023-01-29T09:58:00.468Z,80.2
2023-01-29T09:59:01.755Z,80.9
2023-01-29T10:00:00.665Z,80.8
2023-01-29T10:01:00.781Z,80.7
2023-01-29T10:02:01.075Z,81.3
2023-01-29T10:03:01.013Z,81.1
2023-01-29T10:04:01.109Z,81.1
2023-01-29T10:05:01.204Z,81
2023-01-29T10:06:00.304Z,80.6
2023-01-29T10:07:00.404Z,80.5
2023-01-29T10:08:00.539Z,80.7
2023-01-29T10:09:00.611Z,81
2023-01-29T10:10:00.719Z,81
2023-01-29T10:11:00.847Z,81.2
2023-01-29T10:12:00.944Z,81
2023-01-29T10:13:01.050Z,80.9
2023-01-29T10:14:01.169Z,80.5
2023-01-29T10:15:00.258Z,80.4
2023-01-29T10:16:00.363Z,80.8
2023-01-29T10:17:00.566Z,80.9
2023-01-29T10:18:00.597Z,81.1
2023-01-29T10:19:00.697Z,80.9
2023-01-29T10:20:00.795Z,80.5
2023-01-29T10:21:00.899Z,80.3
2023-01-29T10:22:01.014Z,80.6
2023-01-29T10:23:01.099Z,81.1
2023-01-29T10:24:01.196Z,80.9
2023-01-29T10:25:00.338Z,80.4
2023-01-29T10:26:00.412Z,80.9
2023-01-29T10:27:00.511Z,80.7
2023-01-29T10:28:00.617Z,80.7
2023-01-29T10:29:00.725Z,80.4
2023-01-29T10:30:00.860Z,80.4
2023-01-29T10:31:01.052Z,80.5
2023-01-29T10:32:01.161Z,80.8
2023-01-29T10:33:01.143Z,80.1
2023-01-29T10:34:02.938Z,79.7
2023-01-29T10:35:00.401Z,79.5
2023-01-29T10:36:00.486Z,79.6
2023-01-29T10:37:00.587Z,80.6
2023-01-29T10:38:00.691Z,79.7
2023-01-29T10:39:00.800Z,79.4
2023-01-29T10:40:00.918Z,79.6
2023-01-29T10:41:00.993Z,79.9
2023-01-29T10:42:01.092Z,80.3
2023-01-29T10:43:01.245Z,79.8
2023-01-29T10:44:00.312Z,79.8
2023-01-29T10:45:00.422Z,79.4
2023-01-29T10:46:00.536Z,79.7
2023-01-29T10:47:00.653Z,79.8
2023-01-29T10:48:00.731Z,80
2023-01-29T10:49:00.847Z,80.1
2023-01-29T10:50:00.942Z,80.3
2023-01-29T10:51:01.061Z,80.7
2023-01-29T10:52:01.149Z,80.4
2023-01-29T10:53:00.255Z,80.7
2023-01-29T10:54:00.376Z,80.8
2023-01-29T10:55:00.501Z,80.4
2023-01-29T10:56:02.494Z,80.3
2023-01-29T10:57:00.693Z,79.8
2023-01-29T10:58:02.795Z,80
2023-01-29T10:59:00.899Z,80.2
2023-01-29T11:00:01.016Z,79.9
2023-01-29T11:01:01.148Z,80.1
2023-01-29T11:02:01.273Z,80
2023-01-29T11:03:00.539Z,79.7
2023-01-29T11:04:00.442Z,79.9
2023-01-29T11:05:00.572Z,80
2023-01-29T11:06:00.671Z,80.1
2023-01-29T11:07:00.769Z,80.3
2023-01-29T11:08:00.863Z,80
2023-01-29T11:09:00.981Z,80.1
2023-01-29T11:10:01.078Z,80.4
2023-01-29T11:11:01.200Z,80.1
2023-01-29T11:12:00.286Z,80.1
2023-01-29T11:13:00.392Z,79.9
2023-01-29T11:14:00.505Z,80.4
2023-01-29T11:15:00.597Z,80
2023-01-29T11:16:00.719Z,79.5
2023-01-29T11:17:00.869Z,79.5
2023-01-29T11:18:00.911Z,79.9
2023-01-29T11:19:01.015Z,79.4
2023-01-29T11:20:01.119Z,79.6
2023-01-29T11:21:01.250Z,80.1
2023-01-29T11:22:00.324Z,79.7
2023-01-29T11:23:00.497Z,79.6
2023-01-29T11:24:00.541Z,79.1
2023-01-29T11:25:00.652Z,80
2023-01-29T11:26:00.799Z,80.2
2023-01-29T11:27:00.897Z,80.5
2023-01-29T11:28:00.967Z,80.1
2023-01-29T11:29:01.078Z,79.5
2023-01-29T11:30:01.173Z,79.8
2023-01-29T11:31:00.353Z,79.9
2023-01-29T11:32:00.387Z,79.1
2023-01-29T11:33:00.507Z,79.2
2023-01-29T11:34:00.614Z,79.2
2023-01-29T11:35:00.720Z,78.8
2023-01-29T11:36:00.838Z,78.8
2023-01-29T11:37:00.953Z,79.2
2023-01-29T11:38:01.039Z,80
2023-01-29T11:39:01.154Z,79.9
2023-01-29T11:40:00.278Z,80.1
2023-01-29T11:41:00.383Z,79.8
2023-01-29T11:42:00.484Z,78.7
2023-01-29T11:43:00.577Z,79.6
2023-01-29T11:44:00.682Z,79.7
2023-01-29T11:45:00.784Z,79.5
2023-01-29T11:46:00.901Z,79.5
2023-01-29T11:47:01.026Z,79.9
2023-01-29T11:48:01.098Z,79.5
2023-01-29T11:49:14.136Z,80.1
2023-01-29T11:50:00.310Z,79.4
2023-01-29T11:51:00.411Z,79
2023-01-29T11:52:00.540Z,78.5
2023-01-29T11:53:00.618Z,78.8
2023-01-29T11:54:00.735Z,79.4
2023-01-29T11:55:00.868Z,80
2023-01-29T11:56:00.949Z,80
2023-01-29T11:57:01.062Z,80.1
2023-01-29T11:58:01.157Z,79.5
2023-01-29T11:59:00.256Z,79.2
2023-01-29T12:00:00.361Z,79.7
2023-01-29T12:01:00.473Z,79.8
2023-01-29T12:02:00.594Z,79.2
2023-01-29T12:03:00.687Z,78.8
2023-01-29T12:04:00.825Z,78.9
2023-01-29T12:05:00.899Z,78.6
2023-01-29T12:06:01.068Z,79.1
2023-01-29T12:07:01.139Z,79.3
2023-01-29T12:08:01.250Z,78.8
2023-01-29T12:09:00.342Z,78.6
2023-01-29T12:10:00.428Z,78.9
2023-01-29T12:11:00.524Z,79.1
2023-01-29T12:12:00.656Z,78.8
2023-01-29T12:13:00.740Z,79
2023-01-29T12:14:00.857Z,79.3
2023-01-29T12:15:00.961Z,79.1
2023-01-29T12:16:01.110Z,79.4
2023-01-29T12:17:01.203Z,78.8
2023-01-29T12:18:00.281Z,79.1
2023-01-29T12:19:00.368Z,79
2023-01-29T12:20:00.472Z,79.4
2023-01-29T12:21:00.571Z,79.9
2023-01-29T12:22:02.963Z,79.3
2023-01-29T12:23:00.804Z,77.9
2023-01-29T12:24:00.904Z,77.5
2023-01-29T12:25:01.025Z,77.3
2023-01-29T12:26:01.118Z,77.1
2023-01-29T12:27:01.223Z,77.4
2023-01-29T12:28:00.332Z,77.9
2023-01-29T12:29:00.427Z,77.7
2023-01-29T12:30:00.541Z,77.9
2023-01-29T12:31:00.673Z,78.1
2023-01-29T12:32:00.743Z,77.7
2023-01-29T12:33:00.861Z,77.7
2023-01-29T12:34:00.974Z,76.9
2023-01-29T12:35:01.072Z,77.1
2023-01-29T12:36:01.172Z,77.7
2023-01-29T12:37:00.287Z,78
2023-01-29T12:38:00.417Z,77.9
2023-01-29T12:39:00.501Z,77.6
2023-01-29T12:40:00.599Z,77.8
2023-01-29T12:41:00.711Z,78
2023-01-29T12:42:00.822Z,77.7
2023-01-29T12:43:00.936Z,76.9
2023-01-29T12:44:01.028Z,77.5
2023-01-29T12:45:01.136Z,78.1
2023-01-29T12:46:00.239Z,78.7
2023-01-29T12:47:00.402Z,78.3
2023-01-29T12:48:00.468Z,78
2023-01-29T12:49:00.556Z,78.5
2023-01-29T12:50:00.676Z,78.9
2023-01-29T12:51:00.756Z,78.6
2023-01-29T12:52:00.855Z,78.4
2023-01-29T12:53:00.960Z,77.9
2023-01-29T12:54:01.082Z,77.4
2023-01-29T12:55:01.205Z,77.8
2023-01-29T12:56:00.272Z,78.1
2023-01-29T12:57:00.376Z,78.2
2023-01-29T12:58:00.499Z,77.7
2023-01-29T12:59:00.581Z,77.5
2023-01-29T13:00:00.698Z,77.2
2023-01-29T13:01:00.896Z,77.8
2023-01-29T13:02:00.926Z,78.4
2023-01-29T13:03:01.099Z,79.1
2023-01-29T13:04:01.141Z,78.8
2023-01-29T13:05:00.240Z,78.4
2023-01-29T13:06:00.335Z,78.6
2023-01-29T13:07:00.450Z,78.7
2023-01-29T13:08:00.535Z,79.2
2023-01-29T13:09:00.642Z,78.7
2023-01-29T13:10:00.759Z,79.1
2023-01-29T13:11:00.876Z,78.2
2023-01-29T13:12:00.979Z,78.1
2023-01-29T13:13:01.088Z,78.5
2023-01-29T13:14:01.200Z,79
2023-01-29T13:15:00.272Z,79.1
2023-01-29T13:16:00.471Z,78.6
2023-01-29T13:17:00.480Z,79.2
2023-01-29T13:18:00.598Z,78.9
2023-01-29T13:19:00.778Z,79.3
2023-01-29T13:20:00.843Z,79.2
2023-01-29T13:21:00.910Z,78.7
2023-01-29T13:22:01.039Z,78.8
2023-01-29T13:23:01.128Z,78.7
2023-01-29T13:24:01.216Z,78.4
2023-01-29T13:25:05.134Z,78.4